sensor_id;sensor_type;location;lat;lon;timestamp;temperature;humidity
12111;DHT22;6119;52.372;8.990;2022-10-16T00:02:22;14.70;99.90
12111;DHT22;6119;52.372;8.990;2022-10-16T00:05:09;14.80;99.90
12111;DHT22;6119;52.372;8.990;2022-10-16T00:07:56;14.80;99.90
12111;DHT22;6119;52.372;8.990;2022-10-16T00:10:43;14.90;99.90
12111;DHT22;6119;52.372;8.990;2022-10-16T00:13:30;14.90;99.90
12111;DHT22;6119;52.372;8.990;2022-10-16T00:16:19;14.90;99.90
12111;DHT22;6119;52.372;8.990;2022-10-16T00:19:06;14.90;99.90
12111;DHT22;6119;52.372;8.990;2022-10-16T00:21:53;14.90;99.90
12111;DHT22;6119;52.372;8.990;2022-10-16T00:24:39;15.10;99.90
12111;DHT22;6119;52.372;8.990;2022-10-16T00:27:26;15.00;99.90
12111;DHT22;6119;52.372;8.990;2022-10-16T00:30:12;15.10;99.90
12111;DHT22;6119;52.372;8.990;2022-10-16T00:33:00;15.10;99.90
12111;DHT22;6119;52.372;8.990;2022-10-16T00:35:47;15.10;99.90
12111;DHT22;6119;52.372;8.990;2022-10-16T00:38:34;15.10;99.90
12111;DHT22;6119;52.372;8.990;2022-10-16T00:41:23;15.10;99.90
12111;DHT22;6119;52.372;8.990;2022-10-16T00:44:42;15.20;99.90
12111;DHT22;6119;52.372;8.990;2022-10-16T00:47:30;15.20;99.90
12111;DHT22;6119;52.372;8.990;2022-10-16T00:50:24;15.10;99.90
12111;DHT22;6119;52.372;8.990;2022-10-16T00:53:12;15.00;99.90
12111;DHT22;6119;52.372;8.990;2022-10-16T00:55:59;15.10;99.90
12111;DHT22;6119;52.372;8.990;2022-10-16T00:58:46;15.10;99.90
12111;DHT22;6119;52.372;8.990;2022-10-16T01:01:33;15.10;99.90
12111;DHT22;6119;52.372;8.990;2022-10-16T01:04:20;15.10;99.90
12111;DHT22;6119;52.372;8.990;2022-10-16T01:07:12;15.00;99.90
12111;DHT22;6119;52.372;8.990;2022-10-16T01:10:10;15.10;99.90
12111;DHT22;6119;52.372;8.990;2022-10-16T01:13:04;15.00;99.90
12111;DHT22;6119;52.372;8.990;2022-10-16T01:15:55;15.00;99.90
12111;DHT22;6119;52.372;8.990;2022-10-16T01:18:44;15.00;99.90
12111;DHT22;6119;52.372;8.990;2022-10-16T01:21:36;15.00;99.90
12111;DHT22;6119;52.372;8.990;2022-10-16T01:24:31;15.00;99.90
12111;DHT22;6119;52.372;8.990;2022-10-16T01:27:22;15.00;99.90
12111;DHT22;6119;52.372;8.990;2022-10-16T01:30:13;15.00;99.90
12111;DHT22;6119;52.372;8.990;2022-10-16T01:33:05;15.00;99.90
12111;DHT22;6119;52.372;8.990;2022-10-16T01:35:58;15.00;99.90
12111;DHT22;6119;52.372;8.990;2022-10-16T01:38:47;14.90;99.90
12111;DHT22;6119;52.372;8.990;2022-10-16T01:41:39;14.90;99.90
12111;DHT22;6119;52.372;8.990;2022-10-16T01:44:29;14.90;99.90
12111;DHT22;6119;52.372;8.990;2022-10-16T01:47:20;14.80;99.90
12111;DHT22;6119;52.372;8.990;2022-10-16T01:50:09;14.80;99.90
12111;DHT22;6119;52.372;8.990;2022-10-16T01:52:56;14.80;99.90
12111;DHT22;6119;52.372;8.990;2022-10-16T01:55:46;14.70;99.90
12111;DHT22;6119;52.372;8.990;2022-10-16T01:58:36;14.70;99.90
12111;DHT22;6119;52.372;8.990;2022-10-16T02:01:27;14.70;99.90
12111;DHT22;6119;52.372;8.990;2022-10-16T02:04:19;14.60;99.90
12111;DHT22;6119;52.372;8.990;2022-10-16T02:07:07;14.60;99.90
12111;DHT22;6119;52.372;8.990;2022-10-16T02:09:54;14.50;99.90
12111;DHT22;6119;52.372;8.990;2022-10-16T02:12:44;14.50;99.90
12111;DHT22;6119;52.372;8.990;2022-10-16T02:15:32;14.50;99.90
12111;DHT22;6119;52.372;8.990;2022-10-16T02:18:20;14.50;99.90
12111;DHT22;6119;52.372;8.990;2022-10-16T02:21:13;14.40;99.90
12111;DHT22;6119;52.372;8.990;2022-10-16T02:24:08;14.50;99.90
12111;DHT22;6119;52.372;8.990;2022-10-16T02:27:03;14.50;99.90
12111;DHT22;6119;52.372;8.990;2022-10-16T02:29:56;14.50;99.90
12111;DHT22;6119;52.372;8.990;2022-10-16T02:32:48;14.50;99.90
12111;DHT22;6119;52.372;8.990;2022-10-16T02:35:37;14.50;99.90
12111;DHT22;6119;52.372;8.990;2022-10-16T02:38:25;14.50;99.90
12111;DHT22;6119;52.372;8.990;2022-10-16T02:41:12;14.50;99.90
12111;DHT22;6119;52.372;8.990;2022-10-16T02:44:00;14.50;99.90
12111;DHT22;6119;52.372;8.990;2022-10-16T02:46:46;14.50;99.90
12111;DHT22;6119;52.372;8.990;2022-10-16T02:49:33;14.50;99.90
12111;DHT22;6119;52.372;8.990;2022-10-16T02:52:21;14.50;99.90
12111;DHT22;6119;52.372;8.990;2022-10-16T02:55:08;14.50;99.90
12111;DHT22;6119;52.372;8.990;2022-10-16T02:57:55;14.50;99.90
12111;DHT22;6119;52.372;8.990;2022-10-16T03:00:41;14.50;99.90
12111;DHT22;6119;52.372;8.990;2022-10-16T03:03:28;14.50;99.90
12111;DHT22;6119;52.372;8.990;2022-10-16T03:06:15;14.50;99.90
12111;DHT22;6119;52.372;8.990;2022-10-16T03:09:03;14.40;99.90
12111;DHT22;6119;52.372;8.990;2022-10-16T03:11:50;14.40;99.90
12111;DHT22;6119;52.372;8.990;2022-10-16T03:14:37;14.30;99.90
12111;DHT22;6119;52.372;8.990;2022-10-16T03:17:25;14.30;99.90
12111;DHT22;6119;52.372;8.990;2022-10-16T03:20:12;14.30;99.90
12111;DHT22;6119;52.372;8.990;2022-10-16T03:22:59;14.20;99.90
12111;DHT22;6119;52.372;8.990;2022-10-16T03:25:49;14.10;99.90
12111;DHT22;6119;52.372;8.990;2022-10-16T03:28:35;14.20;99.90
12111;DHT22;6119;52.372;8.990;2022-10-16T03:31:23;14.20;99.90
12111;DHT22;6119;52.372;8.990;2022-10-16T03:34:09;14.20;99.90
12111;DHT22;6119;52.372;8.990;2022-10-16T03:36:55;14.20;99.90
12111;DHT22;6119;52.372;8.990;2022-10-16T03:39:42;14.20;99.90
12111;DHT22;6119;52.372;8.990;2022-10-16T03:42:30;14.20;99.90
12111;DHT22;6119;52.372;8.990;2022-10-16T03:45:17;14.30;99.90
12111;DHT22;6119;52.372;8.990;2022-10-16T03:48:04;14.30;99.90
12111;DHT22;6119;52.372;8.990;2022-10-16T03:50:50;14.20;99.90
12111;DHT22;6119;52.372;8.990;2022-10-16T03:53:37;14.30;99.90
12111;DHT22;6119;52.372;8.990;2022-10-16T03:56:23;14.30;99.90
12111;DHT22;6119;52.372;8.990;2022-10-16T03:59:11;14.20;99.90
12111;DHT22;6119;52.372;8.990;2022-10-16T04:01:58;14.20;99.90
12111;DHT22;6119;52.372;8.990;2022-10-16T04:04:44;14.20;99.90
12111;DHT22;6119;52.372;8.990;2022-10-16T04:07:31;14.20;99.90
12111;DHT22;6119;52.372;8.990;2022-10-16T04:10:18;14.10;99.90
12111;DHT22;6119;52.372;8.990;2022-10-16T04:13:04;14.20;99.90
12111;DHT22;6119;52.372;8.990;2022-10-16T04:15:52;14.10;99.90
12111;DHT22;6119;52.372;8.990;2022-10-16T04:18:39;14.00;99.90
12111;DHT22;6119;52.372;8.990;2022-10-16T04:21:25;14.00;99.90
12111;DHT22;6119;52.372;8.990;2022-10-16T04:24:12;14.00;99.90
12111;DHT22;6119;52.372;8.990;2022-10-16T04:26:59;13.90;99.90
12111;DHT22;6119;52.372;8.990;2022-10-16T04:29:45;13.90;99.90
12111;DHT22;6119;52.372;8.990;2022-10-16T04:32:33;13.80;99.90
12111;DHT22;6119;52.372;8.990;2022-10-16T04:35:21;13.70;99.90
12111;DHT22;6119;52.372;8.990;2022-10-16T04:38:07;13.70;99.90
12111;DHT22;6119;52.372;8.990;2022-10-16T04:40:54;13.60;99.90
12111;DHT22;6119;52.372;8.990;2022-10-16T04:43:40;13.70;99.90
12111;DHT22;6119;52.372;8.990;2022-10-16T04:46:27;13.70;99.90
12111;DHT22;6119;52.372;8.990;2022-10-16T04:49:15;13.80;99.90
12111;DHT22;6119;52.372;8.990;2022-10-16T04:52:01;13.90;99.90
12111;DHT22;6119;52.372;8.990;2022-10-16T04:54:48;14.00;99.90
12111;DHT22;6119;52.372;8.990;2022-10-16T04:57:35;14.00;99.90
12111;DHT22;6119;52.372;8.990;2022-10-16T05:00:22;13.90;99.90
12111;DHT22;6119;52.372;8.990;2022-10-16T05:03:08;13.90;99.90
12111;DHT22;6119;52.372;8.990;2022-10-16T05:05:57;14.00;99.90
12111;DHT22;6119;52.372;8.990;2022-10-16T05:08:44;14.00;99.90
12111;DHT22;6119;52.372;8.990;2022-10-16T05:11:30;14.00;99.90
12111;DHT22;6119;52.372;8.990;2022-10-16T05:14:17;13.90;99.90
12111;DHT22;6119;52.372;8.990;2022-10-16T05:17:04;13.90;99.90
12111;DHT22;6119;52.372;8.990;2022-10-16T05:19:51;14.00;99.90
12111;DHT22;6119;52.372;8.990;2022-10-16T05:22:38;14.00;99.90
12111;DHT22;6119;52.372;8.990;2022-10-16T05:25:25;13.90;99.90
12111;DHT22;6119;52.372;8.990;2022-10-16T05:28:12;13.90;99.90
12111;DHT22;6119;52.372;8.990;2022-10-16T05:30:59;13.90;99.90
12111;DHT22;6119;52.372;8.990;2022-10-16T05:33:45;13.90;99.90
12111;DHT22;6119;52.372;8.990;2022-10-16T05:36:37;13.90;99.90
12111;DHT22;6119;52.372;8.990;2022-10-16T05:39:25;13.90;99.90
12111;DHT22;6119;52.372;8.990;2022-10-16T05:42:11;14.00;99.90
12111;DHT22;6119;52.372;8.990;2022-10-16T05:44:58;13.90;99.90
12111;DHT22;6119;52.372;8.990;2022-10-16T05:47:44;13.90;99.90
12111;DHT22;6119;52.372;8.990;2022-10-16T05:50:31;14.00;99.90
12111;DHT22;6119;52.372;8.990;2022-10-16T05:53:17;14.00;99.90
12111;DHT22;6119;52.372;8.990;2022-10-16T05:56:11;14.10;99.90
12111;DHT22;6119;52.372;8.990;2022-10-16T05:58:58;14.10;99.90
12111;DHT22;6119;52.372;8.990;2022-10-16T06:01:45;14.10;99.90
12111;DHT22;6119;52.372;8.990;2022-10-16T06:04:31;14.10;99.90
12111;DHT22;6119;52.372;8.990;2022-10-16T06:07:18;14.10;99.90
12111;DHT22;6119;52.372;8.990;2022-10-16T06:10:05;14.20;99.90
12111;DHT22;6119;52.372;8.990;2022-10-16T06:12:53;14.20;99.90
12111;DHT22;6119;52.372;8.990;2022-10-16T06:15:42;14.20;99.90
12111;DHT22;6119;52.372;8.990;2022-10-16T06:18:28;14.30;99.90
12111;DHT22;6119;52.372;8.990;2022-10-16T06:21:18;14.30;99.90
12111;DHT22;6119;52.372;8.990;2022-10-16T06:24:05;14.40;99.90
12111;DHT22;6119;52.372;8.990;2022-10-16T06:26:52;14.40;99.90
12111;DHT22;6119;52.372;8.990;2022-10-16T06:29:40;14.40;99.90
12111;DHT22;6119;52.372;8.990;2022-10-16T06:32:28;14.50;99.90
12111;DHT22;6119;52.372;8.990;2022-10-16T06:35:14;14.50;99.90
12111;DHT22;6119;52.372;8.990;2022-10-16T06:38:01;14.50;99.90
12111;DHT22;6119;52.372;8.990;2022-10-16T06:40:47;14.50;99.90
12111;DHT22;6119;52.372;8.990;2022-10-16T06:43:34;14.60;99.90
12111;DHT22;6119;52.372;8.990;2022-10-16T06:46:23;14.60;99.90
12111;DHT22;6119;52.372;8.990;2022-10-16T06:49:10;14.70;99.90
12111;DHT22;6119;52.372;8.990;2022-10-16T06:51:56;14.70;99.90
12111;DHT22;6119;52.372;8.990;2022-10-16T06:54:43;14.80;99.90
12111;DHT22;6119;52.372;8.990;2022-10-16T06:57:29;14.80;99.90
12111;DHT22;6119;52.372;8.990;2022-10-16T07:00:16;14.90;99.90
12111;DHT22;6119;52.372;8.990;2022-10-16T07:03:05;14.90;99.90
12111;DHT22;6119;52.372;8.990;2022-10-16T07:05:51;15.00;99.90
12111;DHT22;6119;52.372;8.990;2022-10-16T07:08:39;15.00;99.90
12111;DHT22;6119;52.372;8.990;2022-10-16T07:11:26;15.10;99.90
12111;DHT22;6119;52.372;8.990;2022-10-16T07:14:15;15.20;99.90
12111;DHT22;6119;52.372;8.990;2022-10-16T07:17:02;15.30;99.90
12111;DHT22;6119;52.372;8.990;2022-10-16T07:19:50;15.40;99.90
12111;DHT22;6119;52.372;8.990;2022-10-16T07:22:38;15.50;99.90
12111;DHT22;6119;52.372;8.990;2022-10-16T07:25:24;15.60;99.90
12111;DHT22;6119;52.372;8.990;2022-10-16T07:28:11;15.60;99.90
12111;DHT22;6119;52.372;8.990;2022-10-16T07:31:01;15.60;99.90
12111;DHT22;6119;52.372;8.990;2022-10-16T07:33:48;15.70;99.90
12111;DHT22;6119;52.372;8.990;2022-10-16T07:36:36;15.60;99.90
12111;DHT22;6119;52.372;8.990;2022-10-16T07:39:23;15.70;99.90
12111;DHT22;6119;52.372;8.990;2022-10-16T07:42:10;15.70;99.90
12111;DHT22;6119;52.372;8.990;2022-10-16T07:44:56;15.80;99.90
12111;DHT22;6119;52.372;8.990;2022-10-16T07:47:43;15.80;99.90
12111;DHT22;6119;52.372;8.990;2022-10-16T07:50:29;15.80;99.90
12111;DHT22;6119;52.372;8.990;2022-10-16T07:53:17;15.80;99.90
12111;DHT22;6119;52.372;8.990;2022-10-16T07:56:11;15.80;99.90
12111;DHT22;6119;52.372;8.990;2022-10-16T07:58:58;15.70;99.90
12111;DHT22;6119;52.372;8.990;2022-10-16T08:01:45;15.70;99.90
12111;DHT22;6119;52.372;8.990;2022-10-16T08:04:32;15.70;99.90
12111;DHT22;6119;52.372;8.990;2022-10-16T08:07:18;15.70;99.90
12111;DHT22;6119;52.372;8.990;2022-10-16T08:10:09;15.80;99.90
12111;DHT22;6119;52.372;8.990;2022-10-16T08:12:57;15.90;99.90
12111;DHT22;6119;52.372;8.990;2022-10-16T08:15:45;16.00;99.90
12111;DHT22;6119;52.372;8.990;2022-10-16T08:18:32;16.10;99.90
12111;DHT22;6119;52.372;8.990;2022-10-16T08:21:20;16.20;99.90
12111;DHT22;6119;52.372;8.990;2022-10-16T08:24:08;16.30;99.90
12111;DHT22;6119;52.372;8.990;2022-10-16T08:26:56;16.30;99.90
12111;DHT22;6119;52.372;8.990;2022-10-16T08:29:42;16.40;99.90
12111;DHT22;6119;52.372;8.990;2022-10-16T08:32:29;16.40;99.90
12111;DHT22;6119;52.372;8.990;2022-10-16T08:35:16;16.50;99.90
12111;DHT22;6119;52.372;8.990;2022-10-16T08:38:03;16.50;99.90
12111;DHT22;6119;52.372;8.990;2022-10-16T08:40:50;16.50;99.90
12111;DHT22;6119;52.372;8.990;2022-10-16T08:43:55;16.60;99.90
12111;DHT22;6119;52.372;8.990;2022-10-16T08:46:51;16.60;99.90
12111;DHT22;6119;52.372;8.990;2022-10-16T08:49:43;16.70;99.90
12111;DHT22;6119;52.372;8.990;2022-10-16T08:52:38;16.80;99.90
12111;DHT22;6119;52.372;8.990;2022-10-16T08:55:31;16.90;99.90
12111;DHT22;6119;52.372;8.990;2022-10-16T08:58:20;16.70;99.90
12111;DHT22;6119;52.372;8.990;2022-10-16T09:01:13;16.80;99.90
12111;DHT22;6119;52.372;8.990;2022-10-16T09:04:18;16.90;99.90
12111;DHT22;6119;52.372;8.990;2022-10-16T09:07:16;17.00;99.90
12111;DHT22;6119;52.372;8.990;2022-10-16T09:10:13;17.10;99.90
12111;DHT22;6119;52.372;8.990;2022-10-16T09:13:08;17.00;99.90
12111;DHT22;6119;52.372;8.990;2022-10-16T09:16:01;17.10;99.90
12111;DHT22;6119;52.372;8.990;2022-10-16T09:19:00;17.10;99.90
12111;DHT22;6119;52.372;8.990;2022-10-16T09:21:50;17.10;99.90
12111;DHT22;6119;52.372;8.990;2022-10-16T09:24:38;17.20;99.90
12111;DHT22;6119;52.372;8.990;2022-10-16T09:27:26;17.30;99.90
12111;DHT22;6119;52.372;8.990;2022-10-16T09:30:15;17.40;99.90
12111;DHT22;6119;52.372;8.990;2022-10-16T09:33:03;17.50;99.90
12111;DHT22;6119;52.372;8.990;2022-10-16T09:35:53;17.60;99.90
12111;DHT22;6119;52.372;8.990;2022-10-16T09:38:40;17.30;99.90
12111;DHT22;6119;52.372;8.990;2022-10-16T09:41:27;17.40;99.90
12111;DHT22;6119;52.372;8.990;2022-10-16T09:44:21;17.40;99.90
12111;DHT22;6119;52.372;8.990;2022-10-16T09:47:15;17.40;99.90
12111;DHT22;6119;52.372;8.990;2022-10-16T09:50:13;17.50;99.90
12111;DHT22;6119;52.372;8.990;2022-10-16T09:53:11;17.70;99.90
12111;DHT22;6119;52.372;8.990;2022-10-16T09:55:58;17.80;99.90
12111;DHT22;6119;52.372;8.990;2022-10-16T09:58:49;18.00;99.90
12111;DHT22;6119;52.372;8.990;2022-10-16T10:01:38;18.00;99.90
12111;DHT22;6119;52.372;8.990;2022-10-16T10:04:25;18.10;99.90
12111;DHT22;6119;52.372;8.990;2022-10-16T10:07:18;18.10;99.90
12111;DHT22;6119;52.372;8.990;2022-10-16T10:10:21;18.10;99.90
12111;DHT22;6119;52.372;8.990;2022-10-16T10:13:17;18.20;99.90
12111;DHT22;6119;52.372;8.990;2022-10-16T10:16:04;18.10;99.90
12111;DHT22;6119;52.372;8.990;2022-10-16T10:18:58;18.10;99.90
12111;DHT22;6119;52.372;8.990;2022-10-16T10:21:45;18.20;99.90
12111;DHT22;6119;52.372;8.990;2022-10-16T10:24:32;18.40;99.90
12111;DHT22;6119;52.372;8.990;2022-10-16T10:27:21;18.40;99.90
12111;DHT22;6119;52.372;8.990;2022-10-16T10:30:19;18.40;99.90
12111;DHT22;6119;52.372;8.990;2022-10-16T10:33:24;18.40;99.90
12111;DHT22;6119;52.372;8.990;2022-10-16T10:36:30;18.40;99.90
12111;DHT22;6119;52.372;8.990;2022-10-16T10:39:23;18.30;99.90
12111;DHT22;6119;52.372;8.990;2022-10-16T10:42:21;18.50;99.90
12111;DHT22;6119;52.372;8.990;2022-10-16T10:45:24;18.50;99.90
12111;DHT22;6119;52.372;8.990;2022-10-16T10:48:35;18.50;99.90
12111;DHT22;6119;52.372;8.990;2022-10-16T10:51:31;18.60;99.90
12111;DHT22;6119;52.372;8.990;2022-10-16T10:54:24;18.70;99.90
12111;DHT22;6119;52.372;8.990;2022-10-16T10:57:25;18.60;99.90
12111;DHT22;6119;52.372;8.990;2022-10-16T11:00:20;18.80;99.90
12111;DHT22;6119;52.372;8.990;2022-10-16T11:03:19;19.00;99.90
12111;DHT22;6119;52.372;8.990;2022-10-16T11:06:15;19.10;99.90
12111;DHT22;6119;52.372;8.990;2022-10-16T11:09:10;18.90;99.90
12111;DHT22;6119;52.372;8.990;2022-10-16T11:12:01;18.90;99.90
12111;DHT22;6119;52.372;8.990;2022-10-16T11:14:56;18.60;99.90
12111;DHT22;6119;52.372;8.990;2022-10-16T11:17:49;18.50;99.90
12111;DHT22;6119;52.372;8.990;2022-10-16T11:20:41;18.40;99.90
12111;DHT22;6119;52.372;8.990;2022-10-16T11:23:34;18.10;99.90
12111;DHT22;6119;52.372;8.990;2022-10-16T11:26:27;18.00;99.90
12111;DHT22;6119;52.372;8.990;2022-10-16T11:29:22;18.00;99.90
12111;DHT22;6119;52.372;8.990;2022-10-16T11:32:19;18.30;99.90
12111;DHT22;6119;52.372;8.990;2022-10-16T11:35:11;18.60;99.90
12111;DHT22;6119;52.372;8.990;2022-10-16T11:38:02;18.80;99.90
12111;DHT22;6119;52.372;8.990;2022-10-16T11:40:56;18.90;99.90
12111;DHT22;6119;52.372;8.990;2022-10-16T11:43:51;18.90;99.90
12111;DHT22;6119;52.372;8.990;2022-10-16T11:46:42;18.90;99.90
12111;DHT22;6119;52.372;8.990;2022-10-16T11:49:55;19.00;99.90
12111;DHT22;6119;52.372;8.990;2022-10-16T11:52:49;19.30;99.90
12111;DHT22;6119;52.372;8.990;2022-10-16T11:55:39;19.10;99.90
12111;DHT22;6119;52.372;8.990;2022-10-16T11:58:35;19.10;99.90
12111;DHT22;6119;52.372;8.990;2022-10-16T12:01:29;19.20;99.90
12111;DHT22;6119;52.372;8.990;2022-10-16T12:04:22;19.20;99.90
12111;DHT22;6119;52.372;8.990;2022-10-16T12:07:17;19.50;99.90
12111;DHT22;6119;52.372;8.990;2022-10-16T12:10:20;19.40;99.90
12111;DHT22;6119;52.372;8.990;2022-10-16T12:13:32;19.50;99.90
12111;DHT22;6119;52.372;8.990;2022-10-16T12:16:23;19.50;99.90
12111;DHT22;6119;52.372;8.990;2022-10-16T12:19:12;19.30;99.90
12111;DHT22;6119;52.372;8.990;2022-10-16T12:22:00;19.30;99.90
12111;DHT22;6119;52.372;8.990;2022-10-16T12:24:52;19.40;99.90
12111;DHT22;6119;52.372;8.990;2022-10-16T12:27:38;19.60;99.90
12111;DHT22;6119;52.372;8.990;2022-10-16T12:30:27;19.70;99.90
12111;DHT22;6119;52.372;8.990;2022-10-16T12:33:21;19.90;99.90
12111;DHT22;6119;52.372;8.990;2022-10-16T12:36:13;20.00;99.90
12111;DHT22;6119;52.372;8.990;2022-10-16T12:39:01;19.90;99.90
12111;DHT22;6119;52.372;8.990;2022-10-16T12:42:00;19.70;99.90
12111;DHT22;6119;52.372;8.990;2022-10-16T12:44:47;20.00;99.90
12111;DHT22;6119;52.372;8.990;2022-10-16T12:47:48;19.90;99.90
12111;DHT22;6119;52.372;8.990;2022-10-16T12:50:37;20.00;99.90
12111;DHT22;6119;52.372;8.990;2022-10-16T12:53:25;19.80;99.90
12111;DHT22;6119;52.372;8.990;2022-10-16T12:56:18;19.80;99.90
12111;DHT22;6119;52.372;8.990;2022-10-16T12:59:18;19.60;99.90
12111;DHT22;6119;52.372;8.990;2022-10-16T13:02:34;19.80;99.90
12111;DHT22;6119;52.372;8.990;2022-10-16T13:05:34;19.90;99.90
12111;DHT22;6119;52.372;8.990;2022-10-16T13:08:37;19.80;99.90
12111;DHT22;6119;52.372;8.990;2022-10-16T13:11:31;19.80;99.90
12111;DHT22;6119;52.372;8.990;2022-10-16T13:14:52;20.00;99.90
12111;DHT22;6119;52.372;8.990;2022-10-16T13:17:50;20.10;99.90
12111;DHT22;6119;52.372;8.990;2022-10-16T13:20:54;20.20;99.90
12111;DHT22;6119;52.372;8.990;2022-10-16T13:23:47;20.30;99.90
12111;DHT22;6119;52.372;8.990;2022-10-16T13:26:44;20.20;99.90
12111;DHT22;6119;52.372;8.990;2022-10-16T13:29:33;20.20;99.90
12111;DHT22;6119;52.372;8.990;2022-10-16T13:32:21;20.20;99.90
12111;DHT22;6119;52.372;8.990;2022-10-16T13:35:20;20.40;99.90
12111;DHT22;6119;52.372;8.990;2022-10-16T13:38:13;20.40;99.90
12111;DHT22;6119;52.372;8.990;2022-10-16T13:41:02;20.40;99.90
12111;DHT22;6119;52.372;8.990;2022-10-16T13:43:51;20.40;99.90
12111;DHT22;6119;52.372;8.990;2022-10-16T13:46:38;20.40;99.90
12111;DHT22;6119;52.372;8.990;2022-10-16T13:49:26;20.30;99.90
12111;DHT22;6119;52.372;8.990;2022-10-16T13:52:18;20.30;99.90
12111;DHT22;6119;52.372;8.990;2022-10-16T13:55:10;20.40;99.90
12111;DHT22;6119;52.372;8.990;2022-10-16T13:58:05;20.30;99.90
12111;DHT22;6119;52.372;8.990;2022-10-16T14:00:57;20.30;99.90
12111;DHT22;6119;52.372;8.990;2022-10-16T14:03:45;20.50;99.90
12111;DHT22;6119;52.372;8.990;2022-10-16T14:06:35;20.50;99.90
12111;DHT22;6119;52.372;8.990;2022-10-16T14:09:24;20.60;99.90
12111;DHT22;6119;52.372;8.990;2022-10-16T14:12:12;20.40;99.90
12111;DHT22;6119;52.372;8.990;2022-10-16T14:14:59;20.50;99.90
12111;DHT22;6119;52.372;8.990;2022-10-16T14:17:50;20.50;99.90
12111;DHT22;6119;52.372;8.990;2022-10-16T14:20:37;20.30;99.90
12111;DHT22;6119;52.372;8.990;2022-10-16T14:23:29;20.30;99.90
12111;DHT22;6119;52.372;8.990;2022-10-16T14:26:19;20.20;99.90
12111;DHT22;6119;52.372;8.990;2022-10-16T14:29:12;20.20;99.90
12111;DHT22;6119;52.372;8.990;2022-10-16T14:32:00;20.10;99.90
12111;DHT22;6119;52.372;8.990;2022-10-16T14:34:53;20.10;99.90
12111;DHT22;6119;52.372;8.990;2022-10-16T14:37:40;19.90;99.90
12111;DHT22;6119;52.372;8.990;2022-10-16T14:40:29;19.90;99.90
12111;DHT22;6119;52.372;8.990;2022-10-16T14:43:20;19.90;99.90
12111;DHT22;6119;52.372;8.990;2022-10-16T14:46:12;19.90;99.90
12111;DHT22;6119;52.372;8.990;2022-10-16T14:49:02;19.90;99.90
12111;DHT22;6119;52.372;8.990;2022-10-16T14:51:50;19.80;99.90
12111;DHT22;6119;52.372;8.990;2022-10-16T14:54:37;19.70;99.90
12111;DHT22;6119;52.372;8.990;2022-10-16T14:57:35;19.80;99.90
12111;DHT22;6119;52.372;8.990;2022-10-16T15:00:24;19.80;99.90
12111;DHT22;6119;52.372;8.990;2022-10-16T15:03:11;19.70;99.90
12111;DHT22;6119;52.372;8.990;2022-10-16T15:05:57;19.70;99.90
12111;DHT22;6119;52.372;8.990;2022-10-16T15:08:44;19.80;99.90
12111;DHT22;6119;52.372;8.990;2022-10-16T15:11:31;19.90;99.90
12111;DHT22;6119;52.372;8.990;2022-10-16T15:14:20;19.90;99.90
12111;DHT22;6119;52.372;8.990;2022-10-16T15:17:08;20.10;99.90
12111;DHT22;6119;52.372;8.990;2022-10-16T15:19:55;20.10;99.90
12111;DHT22;6119;52.372;8.990;2022-10-16T15:22:43;20.40;99.90
12111;DHT22;6119;52.372;8.990;2022-10-16T15:25:36;20.40;99.90
12111;DHT22;6119;52.372;8.990;2022-10-16T15:28:25;20.10;99.90
12111;DHT22;6119;52.372;8.990;2022-10-16T15:31:13;19.90;99.90
12111;DHT22;6119;52.372;8.990;2022-10-16T15:34:00;20.10;99.90
12111;DHT22;6119;52.372;8.990;2022-10-16T15:36:49;20.40;99.90
12111;DHT22;6119;52.372;8.990;2022-10-16T15:39:36;20.60;99.90
12111;DHT22;6119;52.372;8.990;2022-10-16T15:42:25;20.90;99.90
12111;DHT22;6119;52.372;8.990;2022-10-16T15:45:13;20.70;99.90
12111;DHT22;6119;52.372;8.990;2022-10-16T15:48:01;20.40;99.90
12111;DHT22;6119;52.372;8.990;2022-10-16T15:50:47;20.20;99.90
12111;DHT22;6119;52.372;8.990;2022-10-16T15:53:35;19.90;99.90
12111;DHT22;6119;52.372;8.990;2022-10-16T15:56:22;19.70;99.90
12111;DHT22;6119;52.372;8.990;2022-10-16T15:59:10;19.50;99.90
12111;DHT22;6119;52.372;8.990;2022-10-16T16:01:56;19.40;99.90
12111;DHT22;6119;52.372;8.990;2022-10-16T16:04:45;19.10;99.90
12111;DHT22;6119;52.372;8.990;2022-10-16T16:07:32;18.90;99.90
12111;DHT22;6119;52.372;8.990;2022-10-16T16:10:19;18.80;99.90
12111;DHT22;6119;52.372;8.990;2022-10-16T16:13:06;18.70;99.90
12111;DHT22;6119;52.372;8.990;2022-10-16T16:15:53;18.60;99.90
12111;DHT22;6119;52.372;8.990;2022-10-16T16:18:40;18.50;99.90
12111;DHT22;6119;52.372;8.990;2022-10-16T16:21:28;18.30;99.90
12111;DHT22;6119;52.372;8.990;2022-10-16T16:24:15;18.20;99.90
12111;DHT22;6119;52.372;8.990;2022-10-16T16:27:02;18.10;99.90
12111;DHT22;6119;52.372;8.990;2022-10-16T16:29:48;18.00;99.90
12111;DHT22;6119;52.372;8.990;2022-10-16T16:32:35;18.00;99.90
12111;DHT22;6119;52.372;8.990;2022-10-16T16:35:21;17.90;99.90
12111;DHT22;6119;52.372;8.990;2022-10-16T16:38:09;17.90;99.90
12111;DHT22;6119;52.372;8.990;2022-10-16T16:40:56;17.90;99.90
12111;DHT22;6119;52.372;8.990;2022-10-16T16:43:42;17.80;99.90
12111;DHT22;6119;52.372;8.990;2022-10-16T16:46:29;17.70;99.90
12111;DHT22;6119;52.372;8.990;2022-10-16T16:49:16;17.70;99.90
12111;DHT22;6119;52.372;8.990;2022-10-16T16:52:03;17.70;99.90
12111;DHT22;6119;52.372;8.990;2022-10-16T16:54:51;17.60;99.90
12111;DHT22;6119;52.372;8.990;2022-10-16T16:57:38;17.50;99.90
12111;DHT22;6119;52.372;8.990;2022-10-16T17:00:24;17.50;99.90
12111;DHT22;6119;52.372;8.990;2022-10-16T17:03:11;17.50;99.90
12111;DHT22;6119;52.372;8.990;2022-10-16T17:05:58;17.30;99.90
12111;DHT22;6119;52.372;8.990;2022-10-16T17:08:45;17.30;99.90
12111;DHT22;6119;52.372;8.990;2022-10-16T17:11:34;17.30;99.90
12111;DHT22;6119;52.372;8.990;2022-10-16T17:14:20;17.20;99.90
12111;DHT22;6119;52.372;8.990;2022-10-16T17:17:07;17.20;99.90
12111;DHT22;6119;52.372;8.990;2022-10-16T17:19:53;17.20;99.90
12111;DHT22;6119;52.372;8.990;2022-10-16T17:22:40;17.10;99.90
12111;DHT22;6119;52.372;8.990;2022-10-16T17:25:27;17.20;99.90
12111;DHT22;6119;52.372;8.990;2022-10-16T17:28:20;17.10;99.90
12111;DHT22;6119;52.372;8.990;2022-10-16T17:31:08;17.10;99.90
12111;DHT22;6119;52.372;8.990;2022-10-16T17:33:57;17.10;99.90
12111;DHT22;6119;52.372;8.990;2022-10-16T17:36:43;17.10;99.90
12111;DHT22;6119;52.372;8.990;2022-10-16T17:39:31;17.10;99.90
12111;DHT22;6119;52.372;8.990;2022-10-16T17:42:18;17.00;99.90
12111;DHT22;6119;52.372;8.990;2022-10-16T17:45:07;17.00;99.90
12111;DHT22;6119;52.372;8.990;2022-10-16T17:47:53;17.00;99.90
12111;DHT22;6119;52.372;8.990;2022-10-16T17:50:41;17.00;99.90
12111;DHT22;6119;52.372;8.990;2022-10-16T17:53:28;17.00;99.90
12111;DHT22;6119;52.372;8.990;2022-10-16T17:56:14;17.00;99.90
12111;DHT22;6119;52.372;8.990;2022-10-16T17:59:03;16.90;99.90
12111;DHT22;6119;52.372;8.990;2022-10-16T18:01:51;16.90;99.90
12111;DHT22;6119;52.372;8.990;2022-10-16T18:04:38;16.90;99.90
12111;DHT22;6119;52.372;8.990;2022-10-16T18:07:24;16.90;99.90
12111;DHT22;6119;52.372;8.990;2022-10-16T18:10:11;16.90;99.90